createdAt,value
2023-03-27T08:04:05.717Z,3228.00
2023-03-27T08:05:05.743Z,3496.00
2023-03-27T08:06:05.581Z,2980.00
2023-03-27T08:07:05.415Z,6588.00
2023-03-27T08:08:05.434Z,7172.00
2023-03-27T08:09:05.349Z,7124.00
2023-03-27T08:10:05.336Z,6836.00
2023-03-27T08:11:05.660Z,5080.00
2023-03-27T08:12:05.308Z,3752.00
2023-03-27T08:13:05.319Z,3892.00
2023-03-27T08:14:05.282Z,6952.00
2023-03-27T08:15:05.300Z,5408.00
2023-03-27T08:16:05.317Z,7012.00
2023-03-27T08:17:15.005Z,7048.00
2023-03-27T08:18:05.254Z,7048.00
2023-03-27T08:19:05.214Z,6876.00
2023-03-27T08:20:05.210Z,7120.00
2023-03-27T08:21:05.200Z,7148.00
2023-03-27T08:22:05.215Z,7360.00
2023-03-27T08:23:05.162Z,7432.00
2023-03-27T08:24:05.157Z,3756.00
2023-03-27T08:25:05.139Z,3912.00
2023-03-27T08:26:05.134Z,3388.00
2023-03-27T08:27:05.182Z,7104.00
2023-03-27T08:28:05.102Z,3420.00
2023-03-27T08:29:05.096Z,3124.00
2023-03-27T08:30:05.093Z,3064.00
2023-03-27T08:31:05.165Z,3132.00
2023-03-27T08:32:05.087Z,3348.00
2023-03-27T08:33:05.133Z,3744.00
2023-03-27T08:34:05.041Z,3892.00
2023-03-27T08:35:05.020Z,3672.00
2023-03-27T08:36:05.015Z,6872.00
2023-03-27T08:37:05.028Z,8068.00
2023-03-27T08:38:11.251Z,4012.00
2023-03-27T08:39:04.971Z,4496.00
2023-03-27T08:40:04.976Z,4272.00
2023-03-27T08:41:04.949Z,8280.00
2023-03-27T08:42:04.953Z,3944.00
2023-03-27T08:43:04.951Z,3524.00
2023-03-27T08:44:04.919Z,3668.00
2023-03-27T08:45:04.905Z,8080.00
2023-03-27T08:46:04.930Z,4960.00
2023-03-27T08:47:04.898Z,5228.00
2023-03-27T08:48:06.084Z,3516.00
2023-03-27T08:49:05.968Z,3500.00
2023-03-27T08:50:05.972Z,7756.00
2023-03-27T08:51:05.958Z,7976.00
2023-03-27T08:52:06.026Z,8160.00
2023-03-27T08:53:05.954Z,8024.00
2023-03-27T08:54:05.928Z,3820.00
2023-03-27T08:55:05.899Z,3664.00
2023-03-27T08:56:05.898Z,3812.00
2023-03-27T08:57:05.937Z,3960.00
2023-03-27T08:58:05.859Z,3624.00
2023-03-27T08:59:05.896Z,3448.00
2023-03-27T09:00:05.853Z,3444.00
2023-03-27T09:01:05.865Z,3252.00
2023-03-27T09:02:05.855Z,3112.00
2023-03-27T09:03:05.896Z,7628.00
2023-03-27T09:04:05.847Z,3896.00
2023-03-27T09:05:05.801Z,8144.00
2023-03-27T09:06:05.762Z,7984.00
2023-03-27T09:07:05.752Z,3988.00
2023-03-27T09:08:05.808Z,4068.00
2023-03-27T09:09:05.768Z,4432.00
2023-03-27T09:10:05.732Z,3932.00
2023-03-27T09:11:05.718Z,7572.00
2023-03-27T09:12:05.713Z,6736.00
2023-03-27T09:13:05.682Z,6456.00
2023-03-27T09:14:05.694Z,8604.00
2023-03-27T09:15:05.708Z,8904.00
2023-03-27T09:16:05.711Z,5072.00
2023-03-27T09:17:05.653Z,4420.00
2023-03-27T09:18:05.663Z,4392.00
2023-03-27T09:19:05.637Z,5268.00
2023-03-27T09:20:05.740Z,6776.00
2023-03-27T09:21:05.643Z,5876.00
2023-03-27T09:22:05.824Z,4136.00
2023-03-27T09:23:05.596Z,3424.00
2023-03-27T09:24:05.604Z,3096.00
2023-03-27T09:25:05.574Z,3076.00
2023-03-27T09:26:05.609Z,3144.00
2023-03-27T09:27:07.539Z,3180.00
2023-03-27T09:28:05.589Z,3208.00
2023-03-27T09:29:05.516Z,3492.00
2023-03-27T09:30:06.416Z,4016.00
2023-03-27T09:31:05.582Z,3276.00
2023-03-27T09:32:05.513Z,3136.00
2023-03-27T09:33:05.502Z,3012.00
2023-03-27T09:34:05.485Z,3176.00
2023-03-27T09:35:05.476Z,3520.00
2023-03-27T09:36:05.535Z,4072.00
2023-03-27T09:37:05.463Z,4168.00
2023-03-27T09:38:05.420Z,4768.00
2023-03-27T09:39:05.401Z,9484.00
2023-03-27T09:40:05.408Z,9668.00
2023-03-27T09:41:05.411Z,9632.00
2023-03-27T09:42:07.203Z,9480.00
2023-03-27T09:43:05.396Z,9320.00
2023-03-27T09:44:05.355Z,9344.00
2023-03-27T09:45:05.364Z,9224.00
2023-03-27T09:46:05.313Z,8788.00
2023-03-27T09:47:05.788Z,7728.00
2023-03-27T09:48:05.415Z,7068.00
2023-03-27T09:49:05.289Z,2944.00
2023-03-27T09:50:05.291Z,2928.00
2023-03-27T09:51:05.270Z,7988.00
2023-03-27T09:52:05.307Z,5884.00
2023-03-27T09:53:05.253Z,3664.00
2023-03-27T09:54:05.232Z,4048.00
2023-03-27T09:55:05.227Z,3940.00
2023-03-27T09:56:05.572Z,3752.00
2023-03-27T09:57:05.267Z,3380.00
2023-03-27T09:58:05.201Z,2964.00
2023-03-27T09:59:05.191Z,2380.00
2023-03-27T10:00:05.170Z,2128.00
2023-03-27T10:01:05.232Z,2440.00
2023-03-27T10:02:07.579Z,2804.00
2023-03-27T10:03:05.274Z,3140.00
2023-03-27T10:04:05.162Z,3332.00
2023-03-27T10:05:05.120Z,3712.00
2023-03-27T10:06:05.131Z,4344.00
2023-03-27T10:07:05.105Z,6840.00
2023-03-27T10:08:05.102Z,11204.00
2023-03-27T10:09:05.067Z,4932.00
2023-03-27T10:10:05.060Z,8564.00
2023-03-27T10:11:05.061Z,12472.00
2023-03-27T10:12:05.102Z,12324.00
2023-03-27T10:13:05.034Z,12432.00
2023-03-27T10:14:05.033Z,12480.00
2023-03-27T10:15:04.997Z,12372.00
2023-03-27T10:16:05.029Z,12676.00
2023-03-27T10:17:05.123Z,7188.00
2023-03-27T10:18:05.018Z,9976.00
2023-03-27T10:19:04.962Z,9276.00
2023-03-27T10:20:04.930Z,7816.00
2023-03-27T10:21:04.928Z,3164.00
2023-03-27T10:22:04.918Z,10344.00
2023-03-27T10:23:04.942Z,9928.00
2023-03-27T10:24:04.921Z,3200.00
2023-03-27T10:25:04.879Z,2796.00
2023-03-27T10:26:04.898Z,2476.00
2023-03-27T10:27:04.863Z,2860.00
2023-03-27T10:28:04.848Z,3464.00
2023-03-27T10:29:04.816Z,3760.00
2023-03-27T10:30:04.813Z,3856.00
2023-03-27T10:31:04.815Z,4076.00
2023-03-27T10:32:04.795Z,11084.00
2023-03-27T10:33:04.888Z,10672.00
2023-03-27T10:34:04.776Z,10516.00
2023-03-27T10:35:04.767Z,11008.00
2023-03-27T10:36:04.767Z,10848.00
2023-03-27T10:37:04.727Z,10772.00
2023-03-27T10:38:04.743Z,10792.00
2023-03-27T10:39:04.726Z,10820.00
2023-03-27T10:40:04.729Z,10572.00
2023-03-27T10:41:04.690Z,10072.00
2023-03-27T10:42:05.423Z,6152.00
2023-03-27T10:43:04.651Z,5036.00
2023-03-27T10:44:04.839Z,4032.00
2023-03-27T10:45:04.630Z,4136.00
2023-03-27T10:46:04.692Z,3416.00
2023-03-27T10:47:04.646Z,3008.00
2023-03-27T10:48:04.601Z,3360.00
2023-03-27T10:49:04.626Z,4456.00
2023-03-27T10:50:04.576Z,4964.00
2023-03-27T10:51:05.261Z,5492.00
2023-03-27T10:52:04.570Z,7880.00
2023-03-27T10:53:04.602Z,9548.00
2023-03-27T10:54:04.594Z,9472.00
2023-03-27T10:55:04.547Z,9284.00
2023-03-27T10:56:04.505Z,9520.00
2023-03-27T10:57:04.521Z,9536.00
2023-03-27T10:58:04.480Z,9428.00
2023-03-27T10:59:04.536Z,9360.00
2023-03-27T11:00:04.453Z,9312.00
2023-03-27T11:01:04.466Z,9280.00
2023-03-27T11:02:04.439Z,9460.00
2023-03-27T11:03:04.477Z,9864.00
2023-03-27T11:04:04.471Z,7524.00
2023-03-27T11:05:04.463Z,6232.00
2023-03-27T11:06:04.390Z,6560.00
2023-03-27T11:07:04.376Z,8688.00
2023-03-27T11:08:04.384Z,9056.00
2023-03-27T11:09:04.349Z,8012.00
2023-03-27T11:10:04.381Z,6480.00
2023-03-27T11:11:04.325Z,6084.00
2023-03-27T11:12:04.373Z,7564.00
2023-03-27T11:13:04.292Z,6324.00
2023-03-27T11:14:04.386Z,5812.00
2023-03-27T11:15:04.294Z,5412.00
2023-03-27T11:16:04.286Z,5264.00
2023-03-27T11:17:04.448Z,5456.00
2023-03-27T11:18:04.297Z,5044.00
2023-03-27T11:19:04.233Z,9036.00
2023-03-27T11:20:04.216Z,5628.00
2023-03-27T11:21:04.239Z,9420.00
2023-03-27T11:22:04.210Z,9228.00
2023-03-27T11:23:04.164Z,9420.00
2023-03-27T11:24:04.199Z,9764.00
2023-03-27T11:25:04.162Z,5828.00
2023-03-27T11:26:04.163Z,10104.00
2023-03-27T11:27:04.124Z,6784.00
2023-03-27T11:28:04.150Z,5964.00
2023-03-27T11:29:04.127Z,7876.00
2023-03-27T11:30:04.094Z,4000.00
2023-03-27T11:31:12.559Z,4904.00
2023-03-27T11:32:04.090Z,7212.00
2023-03-27T11:33:04.102Z,5468.00
2023-03-27T11:34:04.079Z,6672.00
2023-03-27T11:35:04.524Z,5128.00
2023-03-27T11:36:04.152Z,4812.00
2023-03-27T11:37:04.030Z,4652.00
2023-03-27T11:38:04.013Z,8628.00
2023-03-27T11:39:04.029Z,8572.00
2023-03-27T11:40:03.998Z,8644.00
2023-03-27T11:41:03.993Z,8452.00
2023-03-27T11:42:03.971Z,8412.00
2023-03-27T11:43:03.948Z,8392.00
2023-03-27T11:44:03.951Z,8380.00
2023-03-27T11:45:03.928Z,8404.00
2023-03-27T11:46:03.962Z,8392.00
2023-03-27T11:47:03.928Z,8324.00
2023-03-27T11:48:03.953Z,8296.00
2023-03-27T11:49:03.914Z,8180.00
2023-03-27T11:50:03.885Z,8052.00
2023-03-27T11:51:03.855Z,7936.00
2023-03-27T11:52:03.873Z,7788.00
2023-03-27T11:53:03.857Z,7676.00
2023-03-27T11:54:03.815Z,7660.00
2023-03-27T11:55:03.821Z,7836.00
2023-03-27T11:56:03.795Z,7848.00
2023-03-27T11:57:03.855Z,7276.00
2023-03-27T11:58:03.789Z,7492.00
2023-03-27T11:59:03.774Z,7724.00
2023-03-27T12:00:03.776Z,7992.00
2023-03-27T12:01:03.908Z,7816.00
2023-03-27T12:02:03.819Z,8824.00
2023-03-27T12:03:03.879Z,8900.00
2023-03-27T12:04:03.796Z,9020.00
2023-03-27T12:05:03.756Z,8832.00
2023-03-27T12:06:03.684Z,5404.00
2023-03-27T12:07:05.173Z,5916.00
2023-03-27T12:08:03.675Z,5368.00
2023-03-27T12:09:03.644Z,9100.00
2023-03-27T12:10:03.618Z,9108.00
2023-03-27T12:11:03.635Z,8796.00
2023-03-27T12:12:03.599Z,6080.00
2023-03-27T12:13:03.642Z,7776.00
2023-03-27T12:14:09.007Z,4708.00
2023-03-27T12:15:04.560Z,6460.00
2023-03-27T12:16:03.599Z,4904.00
2023-03-27T12:17:03.561Z,4748.00
2023-03-27T12:18:03.604Z,8232.00
2023-03-27T12:19:10.616Z,8536.00
2023-03-27T12:20:03.524Z,8048.00
2023-03-27T12:21:03.821Z,8968.00
2023-03-27T12:22:07.099Z,9384.00
2023-03-27T12:23:03.500Z,8516.00
2023-03-27T12:24:03.494Z,6056.00
2023-03-27T12:25:03.449Z,5832.00
2023-03-27T12:26:03.465Z,8136.00
2023-03-27T12:27:04.078Z,8060.00
2023-03-27T12:28:03.410Z,8012.00
2023-03-27T12:29:03.463Z,7784.00
2023-03-27T12:30:03.386Z,6760.00
2023-03-27T12:31:03.424Z,6164.00
2023-03-27T12:32:03.422Z,4188.00
2023-03-27T12:33:03.388Z,5660.00
2023-03-27T12:34:03.439Z,6456.00
2023-03-27T12:35:03.349Z,7056.00
2023-03-27T12:36:03.393Z,6336.00
2023-03-27T12:37:03.307Z,3844.00
2023-03-27T12:38:03.306Z,3200.00
2023-03-27T12:39:03.460Z,3844.00
2023-03-27T12:40:03.574Z,4844.00
2023-03-27T12:41:03.524Z,5748.00
2023-03-27T12:42:03.275Z,8580.00
2023-03-27T12:43:03.281Z,9016.00
2023-03-27T12:44:03.267Z,8272.00
2023-03-27T12:45:03.284Z,7780.00
2023-03-27T12:46:03.377Z,7408.00
2023-03-27T12:47:03.215Z,7324.00
2023-03-27T12:48:03.212Z,7588.00
2023-03-27T12:49:03.227Z,7972.00
2023-03-27T12:50:04.179Z,8060.00
2023-03-27T12:51:03.138Z,7624.00
2023-03-27T12:52:03.149Z,7680.00
2023-03-27T12:53:03.106Z,7896.00
2023-03-27T12:54:03.112Z,8424.00
2023-03-27T12:55:03.154Z,6296.00
2023-03-27T12:56:03.084Z,6716.00
2023-03-27T12:57:03.155Z,6868.00
2023-03-27T12:58:03.317Z,8060.00
2023-03-27T12:59:05.536Z,6312.00
2023-03-27T13:00:03.087Z,7472.00
2023-03-27T13:01:03.065Z,4624.00
2023-03-27T13:02:03.125Z,4108.00
2023-03-27T13:03:03.105Z,3892.00
2023-03-27T13:04:03.138Z,3668.00
2023-03-27T13:05:04.081Z,3516.00
2023-03-27T13:06:03.044Z,3536.00
2023-03-27T13:07:02.953Z,3900.00
2023-03-27T13:08:02.961Z,4848.00
2023-03-27T13:09:02.924Z,7492.00
2023-03-27T13:10:02.939Z,6924.00
2023-03-27T13:11:02.983Z,10240.00
2023-03-27T13:12:02.905Z,9816.00
2023-03-27T13:13:02.889Z,8532.00
2023-03-27T13:14:02.879Z,8208.00
2023-03-27T13:15:02.887Z,7300.00
2023-03-27T13:16:02.854Z,6664.00
2023-03-27T13:17:02.881Z,7112.00
2023-03-27T13:18:02.909Z,7288.00
2023-03-27T13:19:02.805Z,6484.00
2023-03-27T13:20:02.795Z,5496.00
2023-03-27T13:21:02.810Z,4416.00
2023-03-27T13:22:02.841Z,3932.00
2023-03-27T13:23:02.758Z,3964.00
2023-03-27T13:24:02.750Z,6644.00
2023-03-27T13:25:02.761Z,8692.00
2023-03-27T13:26:02.772Z,8368.00
2023-03-27T13:27:02.720Z,8404.00
2023-03-27T13:28:02.747Z,7868.00
2023-03-27T13:29:02.703Z,4812.00
2023-03-27T13:30:02.693Z,5148.00
2023-03-27T13:31:02.738Z,6244.00
2023-03-27T13:32:02.710Z,6248.00
2023-03-27T13:33:02.753Z,7460.00
2023-03-27T13:34:02.662Z,8188.00
2023-03-27T13:35:02.631Z,7996.00
2023-03-27T13:36:03.228Z,7332.00
2023-03-27T13:37:06.240Z,7260.00
2023-03-27T13:38:02.669Z,8488.00
2023-03-27T13:39:02.633Z,8908.00
2023-03-27T13:40:02.596Z,9076.00
2023-03-27T13:41:02.561Z,9456.00
2023-03-27T13:42:02.723Z,8248.00
2023-03-27T13:43:02.572Z,7832.00
2023-03-27T13:44:02.573Z,10096.00
2023-03-27T13:45:03.071Z,10192.00
2023-03-27T13:46:02.496Z,10224.00
2023-03-27T13:47:02.567Z,10132.00
2023-03-27T13:48:02.522Z,9904.00
2023-03-27T13:49:02.481Z,9676.00
2023-03-27T13:50:03.462Z,8424.00
2023-03-27T13:51:02.434Z,9672.00
2023-03-27T13:52:02.438Z,7812.00
2023-03-27T13:53:02.432Z,8020.00
2023-03-27T13:54:02.437Z,7336.00
2023-03-27T13:55:02.467Z,7312.00
2023-03-27T13:56:02.375Z,9232.00
2023-03-27T13:57:02.433Z,8520.00
2023-03-27T13:58:02.374Z,7992.00
2023-03-27T13:59:02.345Z,7876.00
2023-03-27T14:00:02.522Z,7660.00
2023-03-27T14:01:02.349Z,7692.00
2023-03-27T14:02:02.375Z,7660.00
2023-03-27T14:03:02.333Z,7380.00
2023-03-27T14:04:02.352Z,7116.00
2023-03-27T14:05:02.278Z,7008.00
2023-03-27T14:06:02.651Z,7128.00
2023-03-27T14:07:02.259Z,7292.00
2023-03-27T14:08:02.259Z,7552.00
2023-03-27T14:09:02.236Z,7184.00
2023-03-27T14:10:02.218Z,7760.00
2023-03-27T14:11:02.305Z,8084.00
2023-03-27T14:12:02.185Z,8432.00
2023-03-27T14:13:02.213Z,8420.00
2023-03-27T14:14:02.176Z,8264.00
2023-03-27T14:15:02.177Z,8196.00
2023-03-27T14:16:02.183Z,8212.00
2023-03-27T14:17:02.173Z,7428.00
2023-03-27T14:18:02.120Z,5528.00
2023-03-27T14:19:02.159Z,5200.00
2023-03-27T14:20:02.261Z,6708.00
2023-03-27T14:21:02.094Z,5836.00
2023-03-27T14:22:02.104Z,4608.00
2023-03-27T14:23:02.089Z,2884.00
2023-03-27T14:24:02.082Z,2100.00
2023-03-27T14:25:02.068Z,2392.00
2023-03-27T14:26:02.035Z,1640.00
2023-03-27T14:27:02.036Z,1348.00
2023-03-27T14:28:02.020Z,1200.00
2023-03-27T14:29:01.983Z,1128.00
2023-03-27T14:30:02.031Z,1192.00
2023-03-27T14:31:01.961Z,1320.00
2023-03-27T14:32:01.978Z,1400.00
2023-03-27T14:33:02.034Z,1568.00
2023-03-27T14:34:01.908Z,1776.00
2023-03-27T14:35:01.905Z,2228.00
2023-03-27T14:36:02.248Z,4972.00
2023-03-27T14:37:01.886Z,6360.00
2023-03-27T14:38:01.954Z,7208.00
2023-03-27T14:39:01.877Z,7616.00
2023-03-27T14:40:01.977Z,7616.00
2023-03-27T14:41:01.887Z,7460.00
2023-03-27T14:42:01.878Z,7288.00
2023-03-27T14:43:01.817Z,7108.00
2023-03-27T14:44:01.935Z,6968.00
2023-03-27T14:45:01.803Z,6868.00
2023-03-27T14:46:02.020Z,6792.00
2023-03-27T14:47:01.778Z,6664.00
2023-03-27T14:48:01.830Z,6572.00
2023-03-27T14:49:01.764Z,6536.00
2023-03-27T14:50:01.858Z,6532.00
2023-03-27T14:51:01.740Z,6324.00
2023-03-27T14:52:01.743Z,6276.00
2023-03-27T14:53:01.955Z,6212.00
2023-03-27T14:54:01.851Z,6172.00
2023-03-27T14:55:01.691Z,6132.00
2023-03-27T14:56:01.699Z,6084.00
2023-03-27T14:57:01.754Z,6044.00
2023-03-27T14:58:01.691Z,6016.00
2023-03-27T14:59:01.693Z,5996.00
2023-03-27T15:00:02.078Z,5984.00
2023-03-27T15:01:01.621Z,5984.00
2023-03-27T15:02:01.666Z,5992.00
2023-03-27T15:03:01.590Z,5996.00
2023-03-27T15:04:01.611Z,6012.00
2023-03-27T15:05:01.604Z,5984.00
2023-03-27T15:06:01.626Z,5972.00
2023-03-27T15:07:01.614Z,5964.00
2023-03-27T15:08:01.525Z,5940.00
2023-03-27T15:09:01.570Z,5920.00
2023-03-27T15:10:01.561Z,5956.00
2023-03-27T15:11:01.531Z,5992.00
2023-03-27T15:12:01.519Z,5944.00
2023-03-27T15:13:01.561Z,5904.00
2023-03-27T15:14:01.469Z,6016.00
2023-03-27T15:15:01.483Z,6400.00
2023-03-27T15:16:01.457Z,6404.00
2023-03-27T15:17:01.532Z,6268.00
2023-03-27T15:18:01.438Z,6392.00
2023-03-27T15:19:01.412Z,6188.00
2023-03-27T15:20:01.557Z,5640.00
2023-03-27T15:21:01.405Z,4672.00
2023-03-27T15:22:01.672Z,4584.00
2023-03-27T15:23:01.353Z,3748.00
2023-03-27T15:24:01.449Z,3080.00
2023-03-27T15:25:01.374Z,2744.00
2023-03-27T15:26:01.367Z,2616.00
2023-03-27T15:27:01.325Z,2520.00
2023-03-27T15:28:01.321Z,2472.00
2023-03-27T15:29:01.366Z,2140.00
2023-03-27T15:30:01.464Z,1720.00
2023-03-27T15:31:01.382Z,1416.00
2023-03-27T15:32:01.334Z,1136.00
2023-03-27T15:33:01.286Z,944.00
2023-03-27T15:34:01.243Z,812.00
2023-03-27T15:35:01.342Z,684.00
2023-03-27T15:36:01.319Z,612.00
2023-03-27T15:37:01.216Z,464.00
2023-03-27T15:38:01.211Z,328.00
2023-03-27T15:39:01.163Z,260.00
2023-03-27T15:40:01.170Z,236.00
2023-03-27T15:41:01.236Z,220.00
2023-03-27T15:42:01.177Z,208.00
2023-03-27T15:43:01.153Z,244.00
2023-03-27T15:44:01.164Z,292.00
2023-03-27T15:45:01.112Z,712.00
2023-03-27T15:46:01.458Z,1084.00
2023-03-27T15:47:01.214Z,1496.00
2023-03-27T15:48:01.150Z,2032.00
2023-03-27T15:49:01.089Z,2640.00
2023-03-27T15:50:01.076Z,3248.00
2023-03-27T15:51:01.063Z,3604.00
2023-03-27T15:52:01.079Z,3488.00
2023-03-27T15:53:01.043Z,2840.00
2023-03-27T15:54:01.010Z,1864.00
2023-03-27T15:55:01.026Z,1236.00
2023-03-27T15:56:01.000Z,2100.00
2023-03-27T15:57:10.417Z,6428.00
2023-03-27T15:58:00.976Z,7368.00
2023-03-27T15:59:00.988Z,6564.00
2023-03-27T16:00:00.967Z,6220.00
2023-03-27T16:03:50.632Z,4968.00
2023-03-27T16:04:50.397Z,4888.00
2023-03-27T16:05:50.365Z,4848.00
2023-03-27T16:06:50.340Z,4808.00
2023-03-27T16:07:50.315Z,4748.00
2023-03-27T16:08:50.222Z,4704.00
2023-03-27T16:09:50.220Z,4672.00
2023-03-27T16:10:50.216Z,4652.00
2023-03-27T16:11:50.217Z,4604.00
2023-03-27T16:12:50.331Z,4588.00
2023-03-27T16:13:50.159Z,4580.00
2023-03-27T16:14:50.141Z,4564.00
2023-03-27T16:15:50.179Z,4524.00
2023-03-27T16:16:50.139Z,4504.00
2023-03-27T16:17:50.201Z,4468.00
2023-03-27T16:18:50.099Z,4424.00
2023-03-27T16:19:50.093Z,4396.00
2023-03-27T16:20:50.081Z,4356.00
2023-03-27T16:21:50.061Z,4292.00
2023-03-27T16:22:50.067Z,4212.00
2023-03-27T16:23:50.041Z,4144.00
2023-03-27T16:24:50.032Z,4080.00
2023-03-27T16:25:50.090Z,3980.00
2023-03-27T16:26:49.995Z,3884.00
2023-03-27T16:27:50.009Z,3752.00
2023-03-27T16:28:49.970Z,3624.00
2023-03-27T16:29:49.966Z,2456.00
2023-03-27T16:30:49.952Z,2232.00
2023-03-27T16:31:49.996Z,2056.00
2023-03-27T16:32:49.992Z,1912.00
2023-03-27T16:33:49.921Z,1724.00
2023-03-27T16:34:51.061Z,1540.00
